Decoded Metar for LFBP (PAU in FRANCE) (IATA:PUF) | Meteo·Mobile Aviation Weather
aviador You're here:

LFBP Decoded Metar

PAU in FRANCE
Report Time2018-10-17 18:30:00
UTC Time2018-10-17 19:00:32
Flight Rules vfr VFR
Wind080° at 03 kt
W.Decomp.*RWY 13: 2.0 kt HW 2.3 kt LCW
W.Rank080° ranks 18
Current wind is below 080° avg. (4.4)
Visibility9999 m
Phenomena:N/A
Clouds:Few 096 Hf
Expected CloudBase > 1,200 ft AGL from Temp-Dew spread
CeilingNone
Temp16°C (ISA +2)
Dew Point13°C (83% RH)
AAT15.9°C
QNH1015 hPa
Density Alt1,001 ft
Elevation607 ft
Report Wrong Elevation
Raw Report
LFBP 171830Z AUTO 08003KT 9999 FEW096 16/13 Q1015 NOSIG=

Extra information for LFBP:More info

Metar Taf Metar & Taf Last 4 Metars F.Rules Stats Wind Profile Meteogram Temp Stats Airport Information Weather charts Add Link Nearby VenuesMetar ALERT Operation Metar Decoded Social comments